Time;durP1;ratioP1;P1;durP2;ratioP2;P2;SDS_P1;SDS_P2;PMS_P1;PMS_P2;Temp;Humidity;BMP_temperature;BMP_pressure;BME280_temperature;BME280_humidity;BME280_pressure;Samples;Min_cycle;Max_cycle;Signal;HPM_P1;HPM_P2
2023/10/18 00:01:16;;;;;;;5.50;1.85;;;7.00;99.90;;;;;;4933761;29;20110;-73
2023/10/18 00:03:42;;;;;;;2.05;1.33;;;7.00;99.90;;;;;;4932961;29;20028;-72
2023/10/18 00:06:21;;;;;;;5.32;2.20;;;6.90;99.90;;;;;;4933387;29;20110;-73
2023/10/18 00:08:47;;;;;;;2.53;1.17;;;6.90;99.90;;;;;;4934935;29;20024;-73
2023/10/18 00:11:16;;;;;;;2.30;1.52;;;6.90;99.90;;;;;;4933619;29;20362;-72
2023/10/18 00:13:44;;;;;;;1.50;1.02;;;6.80;99.90;;;;;;4932530;29;20031;-73
2023/10/18 00:16:09;;;;;;;5.85;2.03;;;6.80;99.90;;;;;;4914863;29;20060;-73
2023/10/18 00:18:35;;;;;;;6.85;1.90;;;6.80;99.90;;;;;;4933254;29;20040;-72
2023/10/18 00:21:06;;;;;;;3.28;2.15;;;6.80;99.90;;;;;;4933984;29;20104;-73
2023/10/18 00:23:33;;;;;;;2.05;1.67;;;6.70;99.90;;;;;;4930302;29;20032;-73
2023/10/18 00:26:09;;;;;;;8.25;2.33;;;6.60;99.90;;;;;;4933281;29;20028;-73
2023/10/18 00:28:38;;;;;;;2.90;1.75;;;6.50;99.90;;;;;;4913672;29;20039;-73
2023/10/18 00:31:17;;;;;;;4.88;1.50;;;6.50;99.90;;;;;;4932789;29;20027;-73
2023/10/18 00:33:46;;;;;;;3.75;1.83;;;6.50;99.90;;;;;;4931337;29;20051;-73
2023/10/18 00:36:16;;;;;;;11.07;2.42;;;6.50;99.90;;;;;;4932859;29;20094;-75
2023/10/18 00:38:44;;;;;;;3.03;1.63;;;6.40;99.90;;;;;;4934533;29;20043;-73
2023/10/18 00:41:14;;;;;;;3.97;1.38;;;6.50;99.90;;;;;;4933477;29;20031;-72
2023/10/18 00:43:47;;;;;;;10.70;2.73;;;6.50;99.90;;;;;;4933329;29;20035;-73
2023/10/18 00:46:16;;;;;;;4.53;2.08;;;6.40;99.90;;;;;;4920773;29;20043;-73
2023/10/18 00:48:44;;;;;;;2.85;1.95;;;6.40;99.90;;;;;;4937324;29;20043;-72
2023/10/18 00:51:13;;;;;;;3.35;1.30;;;6.30;99.90;;;;;;4937016;29;20063;-74
2023/10/18 00:53:40;;;;;;;3.78;2.03;;;6.10;99.90;;;;;;4937270;29;20040;-74
2023/10/18 00:56:06;;;;;;;7.50;1.98;;;6.10;99.90;;;;;;4936359;29;20106;-73
2023/10/18 00:58:34;;;;;;;3.13;1.67;;;6.10;99.90;;;;;;4936533;29;20413;-73
2023/10/18 01:01:09;;;;;;;3.10;1.83;;;6.10;99.90;;;;;;4936466;29;20027;-72
2023/10/18 01:03:46;;;;;;;6.97;2.33;;;6.00;99.90;;;;;;4947787;29;20051;-73
2023/10/18 01:06:21;;;;;;;1.85;1.10;;;5.90;99.90;;;;;;4930790;29;22152;-74
2023/10/18 01:08:48;;;;;;;1.90;1.17;;;5.80;99.90;;;;;;4923295;29;20040;-74
2023/10/18 01:11:18;;;;;;;3.92;1.45;;;5.70;99.90;;;;;;4931238;29;20105;-73
2023/10/18 01:13:45;;;;;;;1.67;0.90;;;5.60;99.90;;;;;;4935841;29;20494;-73
2023/10/18 01:16:23;;;;;;;4.50;1.55;;;5.60;99.90;;;;;;4934414;29;20052;-73
2023/10/18 01:18:52;;;;;;;3.03;1.42;;;5.60;99.90;;;;;;4936080;29;20500;-73
2023/10/18 01:21:20;;;;;;;2.25;1.10;;;5.50;99.90;;;;;;4935981;29;20035;-73
2023/10/18 01:23:49;;;;;;;4.65;1.55;;;5.50;99.90;;;;;;4914686;29;20039;-73
2023/10/18 01:26:16;;;;;;;1.92;1.70;;;5.50;99.90;;;;;;4935554;29;20034;-76
2023/10/18 01:28:42;;;;;;;1.77;1.67;;;5.40;99.90;;;;;;4936007;29;20046;-73
2023/10/18 01:31:09;;;;;;;2.03;1.30;;;5.40;99.90;;;;;;4935938;29;20034;-72
2023/10/18 01:33:45;;;;;;;8.30;2.03;;;5.40;99.90;;;;;;4935480;29;20035;-72
2023/10/18 01:36:15;;;;;;;3.33;1.52;;;5.30;99.90;;;;;;4929686;29;20136;-72
2023/10/18 01:38:43;;;;;;;3.05;1.85;;;5.20;99.90;;;;;;4935550;29;20024;-72
2023/10/18 01:41:13;;;;;;;5.20;1.20;;;5.20;99.90;;;;;;4934247;29;20038;-72
2023/10/18 01:43:41;;;;;;;3.00;2.05;;;5.10;99.90;;;;;;4932116;29;20028;-72
2023/10/18 01:46:08;;;;;;;6.88;2.15;;;5.10;99.90;;;;;;4936308;29;20042;-72
2023/10/18 01:48:40;;;;;;;2.88;1.52;;;5.10;99.90;;;;;;4936890;29;20031;-72
2023/10/18 01:51:06;;;;;;;;;;;5.10;99.90;;;;;;4936767;29;20389;-72
2023/10/18 01:53:33;;;;;;;3.15;1.75;;;5.00;99.90;;;;;;4950994;29;19919;-72
2023/10/18 01:56:01;;;;;;;1.38;0.90;;;5.00;99.90;;;;;;4935342;29;20038;-72
2023/10/18 01:58:28;;;;;;;3.90;2.20;;;5.00;99.90;;;;;;4935385;29;20040;-72
2023/10/18 02:00:56;;;;;;;4.15;2.10;;;5.00;99.90;;;;;;4936687;29;20031;-72
2023/10/18 02:03:23;;;;;;;7.47;2.33;;;5.00;99.90;;;;;;4919683;29;20035;-72
2023/10/18 02:05:49;;;;;;;6.30;1.92;;;5.10;99.90;;;;;;4935918;29;20032;-72
2023/10/18 02:08:18;;;;;;;3.28;1.10;;;5.10;99.90;;;;;;4915250;29;20484;-72
2023/10/18 02:10:45;;;;;;;1.75;1.33;;;5.10;99.90;;;;;;4935387;29;20039;-72
2023/10/18 02:13:13;;;;;;;2.95;1.55;;;5.10;99.90;;;;;;4935716;29;20028;-71
2023/10/18 02:15:41;;;;;;;2.88;1.50;;;4.90;99.90;;;;;;4931019;29;20059;-72
2023/10/18 02:18:08;;;;;;;5.32;2.20;;;4.90;99.90;;;;;;4935648;29;20136;-72
2023/10/18 02:20:41;;;;;;;3.92;1.83;;;4.90;99.90;;;;;;4936230;29;20440;-72
2023/10/18 02:23:14;;;;;;;3.60;1.30;;;4.90;99.90;;;;;;4914608;29;20074;-73
2023/10/18 02:25:43;;;;;;;4.53;1.83;;;4.90;99.90;;;;;;4934691;29;20031;-73
2023/10/18 02:28:26;;;;;;;2.63;1.58;;;4.90;99.90;;;;;;4933385;29;20027;-73
2023/10/18 02:33:45;;;;;;;2.70;1.50;;;4.80;99.90;;;;;;4930584;29;20051;-72
2023/10/18 02:36:12;;;;;;;3.28;2.20;;;4.80;99.90;;;;;;4933948;29;20775;-73
2023/10/18 02:38:38;;;;;;;2.85;2.05;;;4.80;99.90;;;;;;4934729;29;20028;-73
2023/10/18 02:44:12;;;;;;;5.57;2.63;;;4.80;99.90;;;;;;4914858;29;20035;-72
2023/10/18 02:46:38;;;;;;;3.15;1.65;;;4.80;99.90;;;;;;4932749;29;20047;-72
2023/10/18 02:49:08;;;;;;;2.53;1.55;;;4.60;99.90;;;;;;4933231;29;20460;-73
2023/10/18 02:51:35;;;;;;;3.17;1.42;;;4.60;99.90;;;;;;4933192;29;20043;-72
2023/10/18 02:54:07;;;;;;;5.00;2.75;;;4.60;99.90;;;;;;4932635;29;20370;-72
2023/10/18 02:56:37;;;;;;;2.63;1.67;;;4.40;99.90;;;;;;4932873;29;20130;-73
2023/10/18 02:59:10;;;;;;;3.70;1.95;;;4.30;99.90;;;;;;4925552;29;20024;-72
2023/10/18 03:01:43;;;;;;;3.13;2.30;;;4.30;99.90;;;;;;4916675;29;20197;-72
2023/10/18 03:04:14;;;;;;;2.45;1.67;;;4.20;99.90;;;;;;4909656;29;20135;-72
2023/10/18 03:06:45;;;;;;;4.53;3.08;;;4.30;99.90;;;;;;4932485;29;20036;-72
2023/10/18 03:09:27;;;;;;;4.00;2.33;;;4.30;99.90;;;;;;4932809;29;20444;-73
2023/10/18 03:11:55;;;;;;;2.13;1.65;;;4.20;99.90;;;;;;4928693;29;20040;-72
2023/10/18 03:14:23;;;;;;;5.78;2.38;;;4.30;99.90;;;;;;4932761;29;20440;-72
2023/10/18 03:16:49;;;;;;;4.15;2.10;;;4.30;99.90;;;;;;4930881;29;20028;-73
2023/10/18 03:19:18;;;;;;;3.45;1.60;;;4.40;99.90;;;;;;4934173;29;20472;-73
2023/10/18 03:21:48;;;;;;;3.58;1.63;;;4.40;99.90;;;;;;4929309;29;20076;-73
2023/10/18 03:24:14;;;;;;;4.50;1.80;;;4.50;99.90;;;;;;4933559;29;20091;-72
2023/10/18 03:26:41;;;;;;;3.85;1.92;;;4.50;99.90;;;;;;4934523;29;20043;-73
2023/10/18 03:29:15;;;;;;;3.53;1.98;;;4.50;99.90;;;;;;4949709;29;20114;-73
2023/10/18 03:31:43;;;;;;;19.23;3.03;;;4.40;99.90;;;;;;4918528;29;20067;-72
2023/10/18 03:34:19;;;;;;;4.53;2.00;;;4.40;99.90;;;;;;4933090;29;20123;-73
2023/10/18 03:36:49;;;;;;;2.72;1.42;;;4.20;99.90;;;;;;4933370;29;20386;-73
2023/10/18 03:39:15;;;;;;;1.95;1.55;;;4.10;99.90;;;;;;4933488;29;20020;-73
2023/10/18 03:41:42;;;;;;;2.70;1.50;;;4.00;99.90;;;;;;4934221;29;20572;-73
2023/10/18 03:44:13;;;;;;;3.38;1.92;;;4.10;99.90;;;;;;4935101;29;20385;-73
2023/10/18 03:46:48;;;;;;;3.00;2.05;;;4.10;99.90;;;;;;4928633;29;20047;-73
2023/10/18 03:49:24;;;;;;;2.30;1.95;;;4.10;99.90;;;;;;4912702;29;20436;-73
2023/10/18 03:51:54;;;;;;;2.45;2.00;;;4.10;99.90;;;;;;4933817;29;20035;-73
2023/10/18 03:54:23;;;;;;;3.55;2.20;;;4.20;99.90;;;;;;4933565;29;20020;-73
2023/10/18 03:56:53;;;;;;;6.38;2.22;;;4.20;99.90;;;;;;4933190;29;20036;-73
2023/10/18 03:59:22;;;;;;;3.75;1.95;;;4.20;99.90;;;;;;4934773;29;20551;-73
2023/10/18 04:02:16;;;;;;;2.33;1.50;;;4.20;99.90;;;;;;4933283;29;20047;-72
2023/10/18 04:04:47;;;;;;;3.58;1.83;;;4.20;99.90;;;;;;4933450;29;20035;-77
2023/10/18 04:07:17;;;;;;;5.13;2.75;;;4.30;99.90;;;;;;4933509;29;20034;-73
2023/10/18 04:09:47;;;;;;;3.72;1.25;;;4.30;99.90;;;;;;4934733;29;20035;-72
2023/10/18 04:12:19;;;;;;;3.42;1.50;;;4.10;99.90;;;;;;4909927;29;20032;-72
2023/10/18 04:14:50;;;;;;;4.22;2.20;;;4.20;99.90;;;;;;4917602;29;20032;-73
2023/10/18 04:17:19;;;;;;;3.50;1.98;;;4.30;99.90;;;;;;4932978;29;20028;-74
2023/10/18 04:19:47;;;;;;;4.65;2.42;;;4.30;99.90;;;;;;4933637;29;20388;-74
2023/10/18 04:22:13;;;;;;;4.55;3.08;;;4.30;99.90;;;;;;4931014;29;20087;-74
2023/10/18 04:24:39;;;;;;;7.50;2.60;;;4.40;99.90;;;;;;4932944;29;20050;-74
2023/10/18 04:27:06;;;;;;;3.50;1.92;;;4.40;99.90;;;;;;4933222;29;20035;-74
2023/10/18 04:29:39;;;;;;;3.88;1.92;;;4.40;99.90;;;;;;4926372;29;20408;-73
2023/10/18 04:32:06;;;;;;;3.05;2.03;;;4.40;99.90;;;;;;4947152;29;20123;-73
2023/10/18 04:34:33;;;;;;;3.28;2.08;;;4.40;99.90;;;;;;4947482;29;20035;-73
2023/10/18 04:37:05;;;;;;;8.98;4.65;;;4.40;99.90;;;;;;4932919;29;20027;-74
2023/10/18 04:39:34;;;;;;;44.88;20.63;;;4.30;99.90;;;;;;4933260;29;20106;-73
2023/10/18 04:41:59;;;;;;;17.35;6.65;;;5.00;99.90;;;;;;4934219;29;20028;-73
2023/10/18 04:44:25;;;;;;;5.97;2.83;;;5.40;99.90;;;;;;4933082;29;20536;-72
2023/10/18 04:46:52;;;;;;;11.35;3.30;;;5.40;99.90;;;;;;4934335;29;20035;-73
2023/10/18 04:49:36;;;;;;;7.90;3.88;;;5.10;99.90;;;;;;4932977;29;20038;-73
2023/10/18 04:52:05;;;;;;;4.57;2.95;;;5.10;99.90;;;;;;4933058;29;20032;-74
2023/10/18 04:54:42;;;;;;;3.67;2.40;;;4.80;99.90;;;;;;4926618;29;20051;-73
2023/10/18 04:57:11;;;;;;;5.78;2.00;;;4.80;99.90;;;;;;4923012;29;20035;-74
2023/10/18 04:59:45;;;;;;;5.13;2.65;;;4.70;99.90;;;;;;4928062;29;20047;-74
2023/10/18 05:02:17;;;;;;;5.45;2.40;;;4.60;99.90;;;;;;4932843;29;20035;-73
2023/10/18 05:04:46;;;;;;;3.35;2.42;;;4.60;99.90;;;;;;4916708;29;20060;-73
2023/10/18 05:07:15;;;;;;;9.95;3.55;;;4.60;99.90;;;;;;4932765;29;20095;-73
2023/10/18 05:09:43;;;;;;;3.03;2.35;;;4.60;99.90;;;;;;4923607;29;20122;-73
2023/10/18 05:15:08;;;;;;;3.25;1.85;;;4.50;99.90;;;;;;4925607;29;20064;-74
2023/10/18 05:17:43;;;;;;;3.40;2.40;;;4.40;99.90;;;;;;4924397;29;20028;-74
2023/10/18 05:22:50;;;;;;;11.43;3.55;;;4.40;99.90;;;;;;4932089;29;20043;-72
2023/10/18 05:28:09;;;;;;;3.78;2.58;;;4.40;99.90;;;;;;4931750;29;20054;-73
2023/10/18 05:41:29;;;;;;;1.80;1.50;;;4.50;99.90;;;;;;4938143;29;20051;-75
2023/10/18 05:43:58;;;;;;;7.15;3.10;;;4.50;99.90;;;;;;4937767;29;20111;-76
2023/10/18 05:46:32;;;;;;;8.50;2.13;;;4.60;99.90;;;;;;4928633;29;20028;-76
2023/10/18 05:49:00;;;;;;;4.30;2.22;;;4.50;99.90;;;;;;4933359;29;20039;-72
2023/10/18 05:51:34;;;;;;;2.75;2.42;;;4.50;99.90;;;;;;4924505;29;20035;-77
2023/10/18 05:54:00;;;;;;;3.63;2.38;;;4.50;99.90;;;;;;4949628;29;20036;-72
2023/10/18 05:56:29;;;;;;;2.45;1.88;;;4.50;99.90;;;;;;4936101;28;20028;-75
2023/10/18 05:59:41;;;;;;;5.63;3.53;;;4.40;99.90;;;;;;4934069;29;20030;-75
2023/10/18 06:02:00;;;;;;;4.30;2.15;;;4.40;99.90;;;;;;4938192;28;20047;-74
2023/10/18 06:04:26;;;;;;;7.85;2.95;;;4.30;99.90;;;;;;4909671;29;20485;-73
2023/10/18 06:07:09;;;;;;;6.28;2.78;;;4.30;99.90;;;;;;4934298;29;20039;-72
2023/10/18 06:09:45;;;;;;;6.13;3.45;;;4.30;99.90;;;;;;4932404;29;20031;-75
2023/10/18 06:12:15;;;;;;;6.28;3.50;;;4.30;99.90;;;;;;4942660;29;20027;-72
2023/10/18 06:14:45;;;;;;;4.95;2.55;;;4.30;99.90;;;;;;4939469;29;20087;-72
2023/10/18 06:17:19;;;;;;;3.13;2.17;;;4.30;99.90;;;;;;4935252;29;20039;-71
2023/10/18 06:19:47;;;;;;;6.70;2.83;;;4.30;99.90;;;;;;4948540;28;20028;-72
2023/10/18 06:22:28;;;;;;;5.32;2.70;;;4.30;99.90;;;;;;4934689;29;20522;-72
2023/10/18 06:24:57;;;;;;;;;;;4.30;99.90;;;;;;4935926;29;20503;-72
2023/10/18 06:27:24;;;;;;;4.93;2.30;;;4.40;99.90;;;;;;4936073;29;19921;-72
2023/10/18 06:29:55;;;;;;;5.75;2.70;;;4.30;99.90;;;;;;4934440;29;20067;-71
2023/10/18 06:32:25;;;;;;;6.53;2.53;;;4.30;99.90;;;;;;4942689;29;20110;-74
2023/10/18 06:35:09;;;;;;;3.80;3.28;;;4.30;99.90;;;;;;4936441;29;20027;-75
2023/10/18 06:37:41;;;;;;;7.10;3.28;;;4.40;99.90;;;;;;4943120;29;20387;-74
2023/10/18 06:40:22;;;;;;;7.47;4.10;;;4.40;99.90;;;;;;4929302;29;20484;-74
2023/10/18 06:42:49;;;;;;;4.80;2.85;;;4.50;99.90;;;;;;4916769;29;20071;-75
2023/10/18 06:45:17;;;;;;;5.45;3.05;;;4.50;99.90;;;;;;4929077;29;20031;-74
2023/10/18 06:47:44;;;;;;;6.32;2.67;;;4.60;99.90;;;;;;4935459;28;20092;-74
2023/10/18 06:50:11;;;;;;;6.93;3.30;;;4.70;99.90;;;;;;4935015;29;20151;-73
2023/10/18 06:52:44;;;;;;;5.30;2.75;;;4.80;99.90;;;;;;4931304;29;20044;-75
2023/10/18 06:55:21;;;;;;;6.68;2.75;;;4.90;99.90;;;;;;4939035;29;20024;-74
2023/10/18 06:57:49;;;;;;;5.32;3.35;;;5.00;99.90;;;;;;4918883;29;20091;-75
2023/10/18 07:00:16;;;;;;;6.47;2.72;;;5.10;99.90;;;;;;4922779;29;20326;-74
2023/10/18 07:02:44;;;;;;;2.90;2.40;;;5.20;99.90;;;;;;4943912;29;20038;-78
2023/10/18 07:05:10;;;;;;;5.90;2.45;;;5.30;99.90;;;;;;4933001;29;20667;-75
2023/10/18 07:07:37;;;;;;;5.07;2.97;;;5.30;99.90;;;;;;4965317;28;20122;-73
2023/10/18 07:10:05;;;;;;;7.78;3.40;;;5.30;99.90;;;;;;4927788;29;20036;-75
2023/10/18 07:12:52;;;;;;;3.35;2.03;;;5.40;99.90;;;;;;4940526;29;20027;-75
2023/10/18 07:15:22;;;;;;;5.15;2.63;;;5.40;99.90;;;;;;4925886;29;20114;-75
2023/10/18 07:17:49;;;;;;;9.43;3.38;;;5.50;99.90;;;;;;4941087;29;20055;-75
2023/10/18 07:20:17;;;;;;;3.38;2.78;;;5.60;99.90;;;;;;4931926;29;20048;-76
2023/10/18 07:22:49;;;;;;;11.77;5.70;;;5.60;99.90;;;;;;4951266;28;20034;-75
2023/10/18 07:25:20;;;;;;;4.82;3.58;;;5.70;99.90;;;;;;4933233;29;20380;-75
2023/10/18 07:27:46;;;;;;;6.47;4.05;;;5.80;99.90;;;;;;4935154;29;20090;-75
2023/10/18 07:30:15;;;;;;;3.78;2.97;;;6.00;99.90;;;;;;4949321;29;20045;-76
2023/10/18 07:32:47;;;;;;;6.07;3.47;;;6.20;99.90;;;;;;4934893;29;20035;-77
2023/10/18 07:35:26;;;;;;;6.57;3.30;;;6.30;99.90;;;;;;4948511;29;20023;-73
2023/10/18 07:37:54;;;;;;;6.68;2.80;;;6.40;99.90;;;;;;4933854;29;20036;-75
2023/10/18 07:40:33;;;;;;;7.63;3.42;;;6.60;99.90;;;;;;4935091;29;20038;-73
2023/10/18 07:43:12;;;;;;;8.32;4.32;;;6.80;99.90;;;;;;4945616;29;20091;-72
2023/10/18 07:45:39;;;;;;;8.30;3.78;;;6.90;99.90;;;;;;4934184;29;20067;-72
2023/10/18 07:48:06;;;;;;;8.30;3.83;;;7.10;99.90;;;;;;4917209;29;20039;-75
2023/10/18 07:50:41;;;;;;;8.85;4.50;;;7.20;99.90;;;;;;4917608;29;20044;-74
2023/10/18 07:53:11;;;;;;;10.40;4.00;;;7.30;99.90;;;;;;4946604;29;20039;-75
2023/10/18 07:55:37;;;;;;;12.90;3.22;;;7.20;99.90;;;;;;4940962;29;20118;-75
2023/10/18 07:58:17;;;;;;;6.63;3.83;;;7.50;99.90;;;;;;4939414;29;20111;-75
2023/10/18 08:01:46;;;;;;;7.17;4.53;;;7.60;99.90;;;;;;4934453;29;20027;-74
2023/10/18 08:03:32;;;;;;;7.00;3.85;;;7.90;99.90;;;;;;4940741;29;20048;-75
2023/10/18 08:05:59;;;;;;;8.43;4.13;;;8.00;99.90;;;;;;4932668;29;20395;-75
2023/10/18 08:08:26;;;;;;;6.70;3.90;;;8.10;99.90;;;;;;4931536;29;20043;-76
2023/10/18 08:10:54;;;;;;;12.73;4.40;;;8.20;99.90;;;;;;4915534;29;20039;-75
2023/10/18 08:13:26;;;;;;;9.63;4.20;;;8.30;99.90;;;;;;4941192;29;20047;-75
2023/10/18 08:16:01;;;;;;;7.85;4.25;;;8.50;99.90;;;;;;4928518;29;20436;-75
2023/10/18 08:23:55;;;;;;;11.60;4.13;;;8.90;99.90;;;;;;4937599;29;20035;-75
2023/10/18 08:26:26;;;;;;;7.85;4.22;;;9.00;99.90;;;;;;4927280;29;20032;-74
2023/10/18 08:28:53;;;;;;;9.70;4.68;;;9.10;99.90;;;;;;4932068;29;20444;-75
2023/10/18 08:31:33;;;;;;;10.40;4.57;;;9.20;99.90;;;;;;4928050;29;20038;-76
2023/10/18 08:34:10;;;;;;;10.07;4.25;;;9.30;99.90;;;;;;4914040;29;20035;-76
2023/10/18 08:36:35;;;;;;;11.32;4.28;;;9.60;99.90;;;;;;4927980;29;20102;-76
2023/10/18 08:39:02;;;;;;;10.00;4.00;;;9.60;99.90;;;;;;4921499;29;20159;-76
2023/10/18 08:41:33;;;;;;;10.85;4.18;;;9.80;99.90;;;;;;4915176;29;20024;-76
2023/10/18 08:46:43;;;;;;;10.32;5.00;;;10.00;99.90;;;;;;4923229;29;20075;-75
2023/10/18 08:49:13;;;;;;;8.48;4.32;;;10.20;99.90;;;;;;4922696;29;20084;-74
2023/10/18 08:51:44;;;;;;;10.05;4.50;;;10.40;99.90;;;;;;4927900;29;20035;-74
2023/10/18 08:54:18;;;;;;;5.90;3.72;;;10.50;99.90;;;;;;4917893;29;20035;-75
2023/10/18 08:56:47;;;;;;;7.93;4.20;;;10.70;99.90;;;;;;4930593;29;20091;-74
2023/10/18 08:59:19;;;;;;;5.55;2.80;;;10.90;99.90;;;;;;4933764;29;20376;-74
2023/10/18 09:04:32;;;;;;;8.85;4.25;;;11.10;99.90;;;;;;4925648;29;20043;-74
2023/10/18 09:07:01;;;;;;;7.60;3.58;;;11.40;99.90;;;;;;4926931;29;20400;-74
2023/10/18 09:09:35;;;;;;;9.27;3.95;;;11.50;99.90;;;;;;4931639;29;20040;-75
2023/10/18 09:12:14;;;;;;;9.02;3.88;;;11.50;99.90;;;;;;4950092;29;20537;-75
2023/10/18 09:14:50;;;;;;;8.23;3.88;;;11.60;99.90;;;;;;4929503;29;20075;-74
2023/10/18 09:17:21;;;;;;;5.53;3.33;;;11.70;99.90;;;;;;4932480;29;20420;-74
2023/10/18 09:19:51;;;;;;;10.95;4.70;;;11.60;99.90;;;;;;4943078;28;20039;-74
2023/10/18 09:22:17;;;;;;;8.27;3.95;;;12.00;99.90;;;;;;4931183;29;20526;-74
2023/10/18 09:24:43;;;;;;;5.60;2.97;;;12.10;99.90;;;;;;4938606;29;20036;-74
2023/10/18 09:27:09;;;;;;;9.35;3.38;;;12.20;99.90;;;;;;4930382;29;20032;-74
2023/10/18 09:29:36;;;;;;;7.55;3.10;;;12.50;99.90;;;;;;4923863;29;20032;-75
2023/10/18 09:32:09;;;;;;;6.93;3.17;;;12.50;99.90;;;;;;4932525;29;20090;-74
2023/10/18 09:34:38;;;;;;;8.43;3.90;;;12.90;99.90;;;;;;4933196;29;20087;-74
2023/10/18 09:37:04;;;;;;;14.88;4.45;;;12.70;99.90;;;;;;4951651;29;20040;-75
2023/10/18 09:39:42;;;;;;;6.07;3.58;;;12.80;99.90;;;;;;4931493;29;20429;-74
2023/10/18 09:42:12;;;;;;;6.60;3.00;;;13.20;99.90;;;;;;4928904;29;20016;-74
2023/10/18 09:44:41;;;;;;;8.40;3.97;;;12.60;99.90;;;;;;4931486;28;20039;-74
2023/10/18 09:47:08;;;;;;;5.85;2.67;;;12.50;99.90;;;;;;4936742;29;20492;-75
2023/10/18 09:49:34;;;;;;;7.03;3.67;;;13.20;99.90;;;;;;4939593;29;20043;-74
2023/10/18 09:52:03;;;;;;;7.03;3.17;;;12.90;99.90;;;;;;4935648;29;20035;-74
2023/10/18 09:54:36;;;;;;;12.20;4.30;;;12.70;99.90;;;;;;4912901;29;20027;-74
2023/10/18 09:57:06;;;;;;;7.43;3.92;;;13.10;99.90;;;;;;4935361;29;20049;-74
2023/10/18 09:59:37;;;;;;;9.00;3.83;;;13.60;99.90;;;;;;4938038;29;20040;-74
2023/10/18 10:02:09;;;;;;;9.32;4.10;;;13.50;99.90;;;;;;4950502;29;20035;-74
2023/10/18 10:04:35;;;;;;;9.02;3.83;;;14.00;99.90;;;;;;4937270;29;20055;-74
2023/10/18 10:09:51;;;;;;;8.95;3.58;;;14.30;99.70;;;;;;4932142;29;20031;-73
2023/10/18 10:12:27;;;;;;;11.43;3.47;;;14.50;99.90;;;;;;4934761;29;20544;-75
2023/10/18 10:14:52;;;;;;;7.00;3.70;;;14.70;98.50;;;;;;4925231;29;20060;-73
2023/10/18 10:17:28;;;;;;;7.22;3.72;;;14.10;99.70;;;;;;4927135;29;20063;-74
2023/10/18 10:20:16;;;;;;;11.45;3.90;;;14.60;99.90;;;;;;4933929;29;20082;-74
2023/10/18 10:22:45;;;;;;;6.65;3.13;;;14.80;98.90;;;;;;4934115;29;20039;-74
2023/10/18 10:25:31;;;;;;;9.15;3.08;;;14.90;98.00;;;;;;4929721;29;20110;-76
2023/10/18 10:28:13;;;;;;;14.73;3.30;;;14.80;98.80;;;;;;4952679;23;20575;-71
2023/10/18 10:30:43;;;;;;;7.55;3.53;;;15.70;97.80;;;;;;4953821;28;20693;-70
2023/10/18 10:33:12;;;;;;;7.85;3.67;;;16.10;97.10;;;;;;4952622;28;20130;-71
2023/10/18 10:35:46;;;;;;;7.50;3.58;;;16.60;96.50;;;;;;4946598;28;20027;-71
2023/10/18 10:38:19;;;;;;;6.97;3.17;;;16.90;95.90;;;;;;4945507;28;20023;-71
2023/10/18 10:40:48;;;;;;;7.03;3.00;;;17.30;95.10;;;;;;4952270;28;20035;-71
2023/10/18 10:43:18;;;;;;;6.95;4.07;;;16.30;94.70;;;;;;4968154;28;20042;-70
2023/10/18 10:48:28;;;;;;;;;;;;;;;;;;;;;
2023/10/18 10:50:53;;;;;;;7.50;3.75;;;15.90;96.40;;;;;;4954643;28;20054;-72
2023/10/18 10:53:44;;;;;;;11.07;3.85;;;16.70;94.80;;;;;;4951511;28;20027;-71
2023/10/18 10:56:29;;;;;;;6.30;2.95;;;17.60;95.30;;;;;;4953194;28;20376;-73
2023/10/18 11:01:39;;;;;;;7.78;3.55;;;19.10;91.60;;;;;;4947991;28;20099;-71
2023/10/18 11:04:25;;;;;;;6.90;2.97;;;18.20;91.10;;;;;;4950458;28;20491;-71
2023/10/18 11:07:00;;;;;;;8.70;3.20;;;18.70;91.90;;;;;;4966642;28;20027;-71
2023/10/18 11:09:34;;;;;;;8.43;4.05;;;19.90;85.30;;;;;;4950008;28;20035;-71
2023/10/18 11:12:11;;;;;;;5.68;3.10;;;18.20;88.00;;;;;;4953115;28;20028;-71
2023/10/18 11:14:38;;;;;;;4.57;2.17;;;17.20;91.20;;;;;;4948476;29;20278;-71
2023/10/18 11:19:51;;;;;;;6.75;3.20;;;16.80;92.10;;;;;;4952556;29;20058;-71
2023/10/18 11:22:21;;;;;;;7.20;2.88;;;17.20;92.70;;;;;;4949351;28;20126;-71
2023/10/18 11:24:51;;;;;;;6.78;3.22;;;17.30;91.70;;;;;;4951761;29;20500;-70
2023/10/18 11:27:22;;;;;;;6.70;3.30;;;17.70;92.00;;;;;;4951941;28;20041;-71
2023/10/18 11:29:55;;;;;;;4.75;2.70;;;18.80;90.50;;;;;;4947047;28;20046;-71
2023/10/18 11:32:27;;;;;;;6.05;2.42;;;19.10;89.80;;;;;;4959768;28;20511;-71
2023/10/18 11:35:08;;;;;;;6.28;3.20;;;18.60;90.10;;;;;;4949794;29;20119;-71
2023/10/18 11:37:37;;;;;;;14.60;3.75;;;17.60;90.80;;;;;;4948919;28;20616;-71
2023/10/18 11:40:29;;;;;;;9.60;3.80;;;18.90;89.80;;;;;;4940731;29;20027;-71
2023/10/18 11:43:08;;;;;;;7.45;3.25;;;19.50;87.60;;;;;;4947492;28;20023;-70
2023/10/18 11:45:38;;;;;;;7.95;2.70;;;18.50;88.80;;;;;;4943504;29;20024;-70
2023/10/18 11:48:09;;;;;;;5.67;2.60;;;17.20;91.10;;;;;;4944846;29;20015;-70
2023/10/18 11:50:42;;;;;;;5.60;2.88;;;16.90;91.90;;;;;;4945619;29;20031;-71
2023/10/18 11:53:12;;;;;;;6.82;3.20;;;17.90;91.10;;;;;;4947810;29;21329;-70
2023/10/18 11:56:02;;;;;;;5.80;2.78;;;17.40;91.70;;;;;;4938960;29;20031;-70
2023/10/18 11:58:33;;;;;;;5.80;2.53;;;16.90;92.10;;;;;;4944505;29;20036;-70
2023/10/18 12:01:05;;;;;;;5.30;2.70;;;16.60;92.30;;;;;;4941060;28;20024;-70
2023/10/18 12:03:35;;;;;;;7.88;2.65;;;16.10;93.00;;;;;;4925859;29;20174;-69
2023/10/18 12:06:02;;;;;;;8.07;2.90;;;15.80;93.70;;;;;;4940918;28;20039;-68
2023/10/18 12:08:40;;;;;;;6.50;3.28;;;15.80;93.40;;;;;;4944835;29;20375;-69
2023/10/18 12:11:08;;;;;;;7.60;3.03;;;15.70;93.80;;;;;;4933413;29;20042;-71
2023/10/18 12:13:34;;;;;;;8.32;3.25;;;15.70;93.90;;;;;;4943544;29;20027;-71
2023/10/18 12:16:00;;;;;;;7.32;3.03;;;15.40;95.00;;;;;;4945324;29;20503;-70
2023/10/18 12:18:30;;;;;;;8.60;2.83;;;15.40;94.30;;;;;;4951994;28;20027;-70
2023/10/18 12:20:56;;;;;;;7.38;3.08;;;15.50;94.40;;;;;;4948842;29;20102;-70
2023/10/18 12:23:22;;;;;;;6.43;2.80;;;15.50;94.30;;;;;;4964288;28;20050;-70
2023/10/18 12:25:49;;;;;;;5.43;3.10;;;15.50;94.10;;;;;;4944703;29;20444;-70
2023/10/18 12:28:18;;;;;;;7.45;3.55;;;15.40;94.40;;;;;;4961360;28;20031;-70
2023/10/18 12:30:51;;;;;;;7.40;3.05;;;15.50;94.30;;;;;;4951836;29;20035;-70
2023/10/18 12:33:25;;;;;;;8.40;2.40;;;15.60;94.40;;;;;;4929437;29;20407;-71
2023/10/18 12:35:51;;;;;;;13.75;3.25;;;15.70;94.20;;;;;;4951544;28;20055;-70
2023/10/18 12:38:31;;;;;;;6.57;3.63;;;15.80;94.40;;;;;;4952718;28;20027;-70
2023/10/18 12:41:17;;;;;;;6.63;2.60;;;15.90;93.70;;;;;;4958979;28;20397;-70
2023/10/18 12:43:47;;;;;;;4.82;2.38;;;15.80;94.00;;;;;;4964714;28;20031;-71
2023/10/18 12:46:17;;;;;;;8.30;3.17;;;15.90;94.00;;;;;;4952919;28;20023;-70
2023/10/18 12:48:49;;;;;;;8.10;2.97;;;15.90;94.50;;;;;;4966914;28;20110;-70
2023/10/18 12:51:17;;;;;;;6.50;2.92;;;16.20;94.70;;;;;;4936390;29;20118;-70
2023/10/18 12:53:47;;;;;;;4.72;2.42;;;15.80;94.30;;;;;;4951189;28;20043;-70
2023/10/18 12:56:38;;;;;;;7.28;2.75;;;16.00;94.00;;;;;;4959696;28;20041;-70
2023/10/18 13:05:43;;;;;;;4.95;2.08;;;15.80;94.40;;;;;;4969335;28;20133;-71
2023/10/18 13:14:05;;;;;;;5.50;3.22;;;15.30;95.80;;;;;;4982722;28;20103;-70
2023/10/18 13:17:10;;;;;;;6.05;3.40;;;15.40;95.90;;;;;;4980269;28;20069;-70
2023/10/18 13:19:44;;;;;;;7.10;3.90;;;15.30;96.30;;;;;;4969661;28;20054;-70
2023/10/18 13:22:34;;;;;;;12.45;4.45;;;15.00;96.40;;;;;;4961646;28;20033;-71
2023/10/18 13:31:18;;;;;;;8.90;3.13;;;15.10;96.60;;;;;;4968732;28;20034;-70
2023/10/18 13:33:47;;;;;;;6.28;3.28;;;15.10;96.30;;;;;;4968226;28;20870;-69
2023/10/18 13:36:49;;;;;;;5.97;3.15;;;15.00;96.70;;;;;;4969432;28;20042;-69
2023/10/18 13:39:50;;;;;;;6.60;2.88;;;15.10;97.20;;;;;;4955687;28;20045;-70
2023/10/18 13:42:21;;;;;;;4.18;2.58;;;15.00;96.40;;;;;;4950729;28;20046;-70
2023/10/18 13:45:20;;;;;;;4.65;1.83;;;14.90;96.40;;;;;;4952298;28;20035;-70
2023/10/18 13:48:07;;;;;;;5.05;2.13;;;14.90;96.60;;;;;;4930197;29;20052;-69
2023/10/18 13:51:02;;;;;;;4.32;2.45;;;15.10;96.40;;;;;;4926661;29;20117;-70
2023/10/18 13:57:22;;;;;;;6.78;1.83;;;14.90;96.70;;;;;;4946207;29;20043;-71
2023/10/18 14:00:40;;;;;;;11.15;2.47;;;14.90;97.00;;;;;;4951210;29;20035;-70
2023/10/18 14:03:19;;;;;;;3.55;1.83;;;15.00;96.60;;;;;;4950522;28;20075;-69
2023/10/18 14:05:45;;;;;;;2.90;1.90;;;15.00;96.40;;;;;;4953865;28;20093;-70
2023/10/18 14:08:51;;;;;;;3.40;2.10;;;15.00;96.40;;;;;;4954835;28;20491;-70
2023/10/18 14:11:23;;;;;;;4.93;2.35;;;14.90;96.60;;;;;;4951341;28;20135;-70
2023/10/18 14:13:51;;;;;;;4.18;1.90;;;14.70;96.90;;;;;;4965880;28;20059;-70
2023/10/18 14:16:20;;;;;;;3.78;1.77;;;14.70;97.10;;;;;;4969521;28;20031;-70
2023/10/18 14:19:11;;;;;;;5.70;2.00;;;14.70;97.10;;;;;;4953611;28;20098;-70
2023/10/18 14:25:18;;;;;;;9.48;2.15;;;14.60;97.40;;;;;;4946713;29;20030;-69
2023/10/18 14:28:15;;;;;;;5.28;2.50;;;14.70;97.60;;;;;;4967516;28;20050;-70
2023/10/18 14:30:46;;;;;;;3.58;1.55;;;14.80;97.30;;;;;;4952082;29;20556;-70